createdAt,value
2018-04-17T00:00:32.887Z,1002.93
2018-04-17T00:01:39.181Z,1002.98
2018-04-17T00:02:45.424Z,1002.98
2018-04-17T00:03:51.404Z,1002.98
2018-04-17T00:04:57.491Z,1003.01
2018-04-17T00:06:04.285Z,1003.04
2018-04-17T00:07:10.535Z,1003.00
2018-04-17T00:08:16.823Z,1003.05
2018-04-17T00:09:23.107Z,1003.04
2018-04-17T00:10:30.383Z,1003.06
2018-04-17T00:11:35.672Z,1003.09
2018-04-17T00:12:41.906Z,1003.12
2018-04-17T00:13:47.693Z,1003.12
2018-04-17T00:14:54.451Z,1003.14
2018-04-17T00:16:00.253Z,1003.13
2018-04-17T00:17:07.001Z,1003.18
2018-04-17T00:18:13.278Z,1003.19
2018-04-17T00:19:19.037Z,1003.19
2018-04-17T00:20:25.302Z,1003.17
2018-04-17T00:21:32.103Z,1003.21
2018-04-17T00:22:38.393Z,1003.16
2018-04-17T00:23:44.116Z,1003.23
2018-04-17T00:24:50.872Z,1003.25
2018-04-17T00:25:57.125Z,1003.27
2018-04-17T00:27:03.443Z,1003.27
2018-04-17T00:28:09.659Z,1003.28
2018-04-17T00:29:15.916Z,1003.27
2018-04-17T00:30:22.189Z,1003.31
2018-04-17T00:31:27.971Z,1003.31
2018-04-17T00:32:34.225Z,1003.31
2018-04-17T00:33:40.492Z,1003.37
2018-04-17T00:34:47.255Z,1003.35
2018-04-17T00:35:53.498Z,1003.39
2018-04-17T00:37:00.289Z,1003.41
2018-04-17T00:38:06.027Z,1003.46
2018-04-17T00:39:12.384Z,1003.46
2018-04-17T00:40:18.549Z,1003.50
2018-04-17T00:41:24.903Z,1003.52
2018-04-17T00:42:31.056Z,1003.52
2018-04-17T00:43:37.321Z,1003.50
2018-04-17T00:44:43.705Z,1003.52
2018-04-17T00:45:49.843Z,1003.55
2018-04-17T00:46:56.135Z,1003.53
2018-04-17T00:48:01.866Z,1003.58
2018-04-17T00:49:08.615Z,1003.61
2018-04-17T00:50:14.875Z,1003.60
2018-04-17T00:51:20.669Z,1003.60
2018-04-17T00:52:27.458Z,1003.67
2018-04-17T00:53:33.666Z,1003.66
2018-04-17T00:54:39.915Z,1003.66
2018-04-17T00:55:46.176Z,1003.71
2018-04-17T00:56:52.498Z,1003.64
2018-04-17T00:57:58.683Z,1003.68
2018-04-17T00:59:04.455Z,1003.73
2018-04-17T01:00:10.712Z,1003.71
2018-04-17T01:01:16.999Z,1003.70
2018-04-17T01:02:23.722Z,1003.72
2018-04-17T01:03:29.978Z,1003.71
2018-04-17T01:04:36.234Z,1003.74
2018-04-17T01:05:42.497Z,1003.73
2018-04-17T01:06:48.284Z,1003.73
2018-04-17T01:07:55.000Z,1003.73
2018-04-17T01:09:01.259Z,1003.75
2018-04-17T01:10:07.512Z,1003.75
2018-04-17T01:11:13.787Z,1003.76
2018-04-17T01:12:20.021Z,1003.74
2018-04-17T01:13:26.386Z,1003.75
2018-04-17T01:14:32.051Z,1003.78
2018-04-17T01:15:38.795Z,1003.73
2018-04-17T01:16:46.065Z,1003.77
2018-04-17T01:17:51.299Z,1003.77
2018-04-17T01:18:57.553Z,1003.81
2018-04-17T01:20:03.814Z,1003.80
2018-04-17T01:21:10.062Z,1003.77
2018-04-17T01:22:16.408Z,1003.86
2018-04-17T01:23:22.555Z,1003.78
2018-04-17T01:24:28.803Z,1003.81
2018-04-17T01:25:35.062Z,1003.83
2018-04-17T01:26:41.327Z,1003.85
2018-04-17T01:27:47.561Z,1003.83
2018-04-17T01:28:53.306Z,1003.85
2018-04-17T01:29:59.555Z,1003.88
2018-04-17T01:31:06.390Z,1003.88
2018-04-17T01:32:12.082Z,1003.92
2018-04-17T01:33:18.801Z,1003.85
2018-04-17T01:34:24.583Z,1003.87
2018-04-17T01:35:32.387Z,1003.86
2018-04-17T01:36:37.627Z,1003.90
2018-04-17T01:37:43.808Z,1003.91
2018-04-17T01:38:49.557Z,1003.89
2018-04-17T01:39:56.308Z,1003.90
2018-04-17T01:41:02.557Z,1003.92
2018-04-17T01:42:08.806Z,1003.93
2018-04-17T01:43:15.034Z,1003.91
2018-04-17T01:44:21.275Z,1003.92
2018-04-17T01:45:27.519Z,1003.93
2018-04-17T01:46:33.789Z,1003.93
2018-04-17T01:47:39.517Z,1003.93
2018-04-17T01:48:46.274Z,1003.94
2018-04-17T01:49:52.018Z,1003.96
2018-04-17T01:50:58.254Z,1003.97
2018-04-17T01:52:04.528Z,1004.00
2018-04-17T01:53:11.249Z,1004.07
2018-04-17T01:54:17.505Z,1004.02
2018-04-17T01:55:23.739Z,1003.95
2018-04-17T01:56:29.509Z,1004.00
2018-04-17T01:57:36.232Z,1004.00
2018-04-17T01:58:42.483Z,1004.01
2018-04-17T01:59:48.719Z,1004.05
2018-04-17T02:00:54.967Z,1004.08
2018-04-17T02:02:01.232Z,1004.08
2018-04-17T02:03:07.476Z,1004.03
2018-04-17T02:04:13.220Z,1004.00
2018-04-17T02:05:19.962Z,1004.01
2018-04-17T02:06:26.234Z,1004.05
2018-04-17T02:07:33.449Z,1004.05
2018-04-17T02:08:38.710Z,1004.05
2018-04-17T02:09:44.459Z,1004.06
2018-04-17T02:10:50.704Z,1004.00
2018-04-17T02:11:57.465Z,1004.02
2018-04-17T02:13:03.704Z,1003.94
2018-04-17T02:14:09.945Z,1003.97
2018-04-17T02:15:16.186Z,1003.99
2018-04-17T02:16:22.444Z,1003.98
2018-04-17T02:17:28.706Z,1004.01
2018-04-17T02:18:34.941Z,1003.98
2018-04-17T02:19:41.182Z,1004.01
2018-04-17T02:20:47.432Z,1004.04
2018-04-17T02:21:53.206Z,1004.05
2018-04-17T02:22:59.928Z,1004.13
2018-04-17T02:24:06.203Z,1004.10
2018-04-17T02:25:12.465Z,1004.10
2018-04-17T02:26:18.677Z,1004.12
2018-04-17T02:27:24.443Z,1004.09
2018-04-17T02:28:31.168Z,1004.11
2018-04-17T02:29:37.416Z,1004.12
2018-04-17T02:30:43.648Z,1004.11
2018-04-17T02:31:49.435Z,1004.11
2018-04-17T02:32:55.658Z,1004.12
2018-04-17T02:34:01.899Z,1004.10
2018-04-17T02:35:08.632Z,1004.10
2018-04-17T02:36:14.872Z,1004.15
2018-04-17T02:37:21.139Z,1004.12
2018-04-17T02:38:27.359Z,1004.16
2018-04-17T02:39:33.597Z,1004.17
2018-04-17T02:40:39.822Z,1004.17
2018-04-17T02:41:46.085Z,1004.20
2018-04-17T02:42:52.380Z,1004.26
2018-04-17T02:43:58.046Z,1004.23
2018-04-17T02:45:04.797Z,1004.26
2018-04-17T02:46:12.026Z,1004.28
2018-04-17T02:47:17.282Z,1004.24
2018-04-17T02:48:23.503Z,1004.24
2018-04-17T02:49:29.244Z,1004.28
2018-04-17T02:50:35.971Z,1004.22
2018-04-17T02:51:41.753Z,1004.27
2018-04-17T02:52:48.451Z,1004.30
2018-04-17T02:53:54.695Z,1004.23
2018-04-17T02:55:00.444Z,1004.26
2018-04-17T02:56:06.871Z,1004.29
2018-04-17T02:57:13.423Z,1004.28
2018-04-17T02:58:19.643Z,1004.31
2018-04-17T02:59:25.887Z,1004.31
2018-04-17T03:00:32.135Z,1004.29
2018-04-17T03:01:38.892Z,1004.28
2018-04-17T03:02:45.607Z,1004.28
2018-04-17T03:03:50.847Z,1004.28
2018-04-17T03:04:56.607Z,1004.30
2018-04-17T03:06:03.341Z,1004.28
2018-04-17T03:07:09.595Z,1004.30
2018-04-17T03:08:15.339Z,1004.29
2018-04-17T03:09:22.073Z,1004.30
2018-04-17T03:10:28.387Z,1004.27
2018-04-17T03:11:35.544Z,1004.30
2018-04-17T03:12:40.829Z,1004.30
2018-04-17T03:13:47.025Z,1004.30
2018-04-17T03:14:52.787Z,1004.28
2018-04-17T03:15:59.516Z,1004.32
2018-04-17T03:17:05.773Z,1004.34
2018-04-17T03:18:11.995Z,1004.37
2018-04-17T03:19:18.231Z,1004.36
2018-04-17T03:20:24.479Z,1004.38
2018-04-17T03:21:30.718Z,1004.37
2018-04-17T03:22:36.484Z,1004.35
2018-04-17T03:23:43.182Z,1004.33
2018-04-17T03:24:49.441Z,1004.34
2018-04-17T03:25:55.203Z,1004.38
2018-04-17T03:27:01.934Z,1004.34
2018-04-17T03:28:08.152Z,1004.35
2018-04-17T03:29:14.389Z,1004.37
2018-04-17T03:30:20.626Z,1004.38
2018-04-17T03:31:26.376Z,1004.42
2018-04-17T03:32:33.129Z,1004.44
2018-04-17T03:33:38.858Z,1004.40
2018-04-17T03:34:45.589Z,1004.46
2018-04-17T03:35:51.848Z,1004.46
2018-04-17T03:36:58.098Z,1004.48
2018-04-17T03:38:04.385Z,1004.49
2018-04-17T03:39:10.567Z,1004.51
2018-04-17T03:40:16.804Z,1004.50
2018-04-17T03:41:23.055Z,1004.53
2018-04-17T03:42:29.307Z,1004.56
2018-04-17T03:43:35.532Z,1004.53
2018-04-17T03:44:41.783Z,1004.51
2018-04-17T03:45:48.028Z,1004.60
2018-04-17T03:46:53.827Z,1004.60
2018-04-17T03:48:00.517Z,1004.62
2018-04-17T03:49:06.755Z,1004.59
2018-04-17T03:50:13.015Z,1004.63
2018-04-17T03:51:18.750Z,1004.63
2018-04-17T03:52:25.035Z,1004.65
2018-04-17T03:53:31.735Z,1004.65
2018-04-17T03:54:37.986Z,1004.65
2018-04-17T03:55:44.230Z,1004.66
2018-04-17T03:56:50.502Z,1004.73
2018-04-17T03:57:56.720Z,1004.75
2018-04-17T03:59:02.972Z,1004.75
2018-04-17T04:00:09.197Z,1004.73
2018-04-17T04:01:15.449Z,1004.80
2018-04-17T04:02:21.714Z,1004.76
2018-04-17T04:03:27.932Z,1004.81
2018-04-17T04:04:34.165Z,1004.82
2018-04-17T04:05:40.418Z,1004.80
2018-04-17T04:06:46.665Z,1004.83
2018-04-17T04:07:52.429Z,1004.82
2018-04-17T04:08:59.140Z,1004.84
2018-04-17T04:10:05.400Z,1004.85
2018-04-17T04:11:11.640Z,1004.82
2018-04-17T04:12:17.900Z,1004.83
2018-04-17T04:13:24.132Z,1004.84
2018-04-17T04:14:30.380Z,1004.83
2018-04-17T04:15:36.119Z,1004.88
2018-04-17T04:16:42.848Z,1004.84
2018-04-17T04:17:48.617Z,1004.90
2018-04-17T04:18:54.839Z,1004.87
2018-04-17T04:20:01.582Z,1004.90
2018-04-17T04:21:07.332Z,1004.89
2018-04-17T04:22:13.589Z,1004.95
2018-04-17T04:23:21.303Z,1004.95
2018-04-17T04:24:26.051Z,1004.96
2018-04-17T04:25:32.782Z,1005.00
2018-04-17T04:26:39.023Z,1005.01
2018-04-17T04:27:44.794Z,1005.01
2018-04-17T04:28:51.506Z,1005.04
2018-04-17T04:29:57.255Z,1005.04
2018-04-17T04:31:03.496Z,1005.06
2018-04-17T04:32:10.228Z,1005.09
2018-04-17T04:33:16.492Z,1005.12
2018-04-17T04:34:22.202Z,1005.14
2018-04-17T04:35:28.924Z,1005.13
2018-04-17T04:36:35.177Z,1005.11
2018-04-17T04:37:41.434Z,1005.12
2018-04-17T04:38:47.637Z,1005.17
2018-04-17T04:39:53.866Z,1005.19
2018-04-17T04:41:00.110Z,1005.17
2018-04-17T04:42:06.379Z,1005.18
2018-04-17T04:43:12.598Z,1005.26
2018-04-17T04:44:19.261Z,1005.25
2018-04-17T04:45:25.025Z,1005.26
2018-04-17T04:46:31.284Z,1005.28
2018-04-17T04:47:37.010Z,1005.34
2018-04-17T04:48:43.715Z,1005.30
2018-04-17T04:49:49.940Z,1005.33
2018-04-17T04:50:56.170Z,1005.34
2018-04-17T04:52:02.424Z,1005.39
2018-04-17T04:53:08.645Z,1005.36
2018-04-17T04:54:14.342Z,1005.36
2018-04-17T04:55:21.073Z,1005.41
2018-04-17T04:56:27.294Z,1005.38
2018-04-17T04:57:33.043Z,1005.37
2018-04-17T04:58:39.741Z,1005.37
2018-04-17T04:59:46.952Z,1005.41
2018-04-17T05:00:51.697Z,1005.43
2018-04-17T05:01:58.410Z,1005.43
2018-04-17T05:03:04.731Z,1005.45
2018-04-17T05:04:10.868Z,1005.39
2018-04-17T05:05:17.088Z,1005.43
2018-04-17T05:06:22.842Z,1005.45
2018-04-17T05:07:29.050Z,1005.49
2018-04-17T05:08:35.778Z,1005.45
2018-04-17T05:09:41.981Z,1005.43
2018-04-17T05:10:48.228Z,1005.45
2018-04-17T05:11:54.449Z,1005.49
2018-04-17T05:13:00.680Z,1005.47
2018-04-17T05:14:06.401Z,1005.44
2018-04-17T05:15:13.125Z,1005.45
2018-04-17T05:16:19.352Z,1005.48
2018-04-17T05:17:25.569Z,1005.55
2018-04-17T05:18:31.880Z,1005.56
2018-04-17T05:19:37.547Z,1005.60
2018-04-17T05:21:50.008Z,1005.66
2018-04-17T05:22:56.265Z,1005.62
2018-04-17T05:24:02.960Z,1005.66
2018-04-17T05:25:09.208Z,1005.69
2018-04-17T05:26:14.945Z,1005.70
2018-04-17T05:27:21.683Z,1005.70
2018-04-17T05:28:27.429Z,1005.74
2018-04-17T05:29:34.145Z,1005.71
2018-04-17T05:30:40.377Z,1005.72
2018-04-17T05:31:46.628Z,1005.77
2018-04-17T05:32:52.880Z,1005.75
2018-04-17T05:33:59.108Z,1005.76
2018-04-17T05:35:05.355Z,1005.81
2018-04-17T05:36:11.096Z,1005.81
2018-04-17T05:37:17.826Z,1005.79
2018-04-17T05:38:24.092Z,1005.78
2018-04-17T05:39:30.377Z,1005.84
2018-04-17T05:40:36.565Z,1005.87
2018-04-17T05:41:42.328Z,1005.87
2018-04-17T05:42:48.591Z,1005.89
2018-04-17T05:43:55.320Z,1005.91
2018-04-17T05:45:01.575Z,1005.90
2018-04-17T05:46:07.828Z,1005.95
2018-04-17T05:47:13.605Z,1005.97
2018-04-17T05:48:20.407Z,1005.97
2018-04-17T05:49:26.622Z,1006.01
2018-04-17T05:50:32.363Z,1005.99
2018-04-17T05:51:39.124Z,1006.03
2018-04-17T05:52:44.915Z,1006.04
2018-04-17T05:53:51.159Z,1006.13
2018-04-17T05:54:57.907Z,1006.16
2018-04-17T05:56:04.176Z,1006.21
2018-04-17T05:57:10.443Z,1006.21
2018-04-17T05:58:16.745Z,1006.23
2018-04-17T05:59:22.979Z,1006.20
2018-04-17T06:00:28.764Z,1006.19
2018-04-17T06:01:35.549Z,1006.24
2018-04-17T06:02:41.824Z,1006.22
2018-04-17T06:03:48.117Z,1006.26
2018-04-17T06:04:54.384Z,1006.27
2018-04-17T06:06:00.656Z,1006.28
2018-04-17T06:07:06.955Z,1006.33
2018-04-17T06:08:13.246Z,1006.35
2018-04-17T06:09:19.530Z,1006.38
2018-04-17T06:10:25.812Z,1006.36
2018-04-17T06:11:32.097Z,1006.40
2018-04-17T06:12:38.386Z,1006.39
2018-04-17T06:13:44.725Z,1006.42
2018-04-17T06:14:50.969Z,1006.43
2018-04-17T06:15:57.259Z,1006.46
2018-04-17T06:17:03.061Z,1006.50
2018-04-17T06:18:09.924Z,1006.51
2018-04-17T06:19:16.151Z,1006.51
2018-04-17T06:20:22.444Z,1006.50
2018-04-17T06:21:28.758Z,1006.53
2018-04-17T06:22:35.049Z,1006.56
2018-04-17T06:23:40.881Z,1006.53
2018-04-17T06:24:47.155Z,1006.52
2018-04-17T06:25:53.970Z,1006.52
2018-04-17T06:27:00.267Z,1006.52
2018-04-17T06:28:06.611Z,1006.59
2018-04-17T06:29:12.920Z,1006.58
2018-04-17T06:30:19.228Z,1006.59
2018-04-17T06:31:25.555Z,1006.61
2018-04-17T06:32:31.879Z,1006.59
2018-04-17T06:33:38.253Z,1006.63
2018-04-17T06:34:44.549Z,1006.66
2018-04-17T06:35:50.872Z,1006.65
2018-04-17T06:36:57.237Z,1006.70
2018-04-17T06:38:03.593Z,1006.73
2018-04-17T06:39:10.904Z,1006.68
2018-04-17T06:40:15.766Z,1006.71
2018-04-17T06:41:22.628Z,1006.74
2018-04-17T06:42:28.945Z,1006.77
2018-04-17T06:43:35.353Z,1006.78
2018-04-17T06:44:41.194Z,1006.76
2018-04-17T06:45:47.563Z,1006.81
2018-04-17T06:46:54.409Z,1006.80
2018-04-17T06:48:00.797Z,1006.86
2018-04-17T06:49:07.145Z,1006.85
2018-04-17T06:50:13.500Z,1006.85
2018-04-17T06:51:19.861Z,1006.90
2018-04-17T06:52:26.222Z,1006.93
2018-04-17T06:53:32.589Z,1006.92
2018-04-17T06:54:38.934Z,1006.99
2018-04-17T06:55:45.283Z,1007.04
2018-04-17T06:56:51.642Z,1007.06
2018-04-17T06:57:58.059Z,1007.09
2018-04-17T06:59:03.862Z,1007.07
2018-04-17T07:00:10.218Z,1007.12
2018-04-17T07:01:16.586Z,1007.07
2018-04-17T07:02:23.421Z,1007.08
2018-04-17T07:03:29.815Z,1007.07
2018-04-17T07:04:36.146Z,1007.08
2018-04-17T07:05:42.008Z,1007.05
2018-04-17T07:06:48.865Z,1007.09
2018-04-17T07:07:55.221Z,1007.10
2018-04-17T07:09:01.602Z,1007.12
2018-04-17T07:10:07.939Z,1007.11
2018-04-17T07:11:14.375Z,1007.18
2018-04-17T07:12:20.669Z,1007.17
2018-04-17T07:13:27.070Z,1007.18
2018-04-17T07:14:33.421Z,1007.19
2018-04-17T07:15:39.785Z,1007.21
2018-04-17T07:16:46.155Z,1007.22
2018-04-17T07:17:52.038Z,1007.20
2018-04-17T07:18:58.926Z,1007.21
2018-04-17T07:20:06.277Z,1007.21
2018-04-17T07:21:11.169Z,1007.24
2018-04-17T07:22:18.044Z,1007.20
2018-04-17T07:23:23.973Z,1007.27
2018-04-17T07:24:30.319Z,1007.25
2018-04-17T07:25:37.198Z,1007.22
2018-04-17T07:26:43.086Z,1007.25
2018-04-17T07:27:49.983Z,1007.28
2018-04-17T07:28:56.413Z,1007.33
2018-04-17T07:30:02.736Z,1007.27
2018-04-17T07:31:09.129Z,1007.31
2018-04-17T07:32:15.521Z,1007.27
2018-04-17T07:33:21.417Z,1007.38
2018-04-17T07:34:27.819Z,1007.35
2018-04-17T07:35:34.653Z,1007.37
2018-04-17T07:36:40.542Z,1007.31
2018-04-17T07:37:47.429Z,1007.30
2018-04-17T07:38:53.833Z,1007.30
2018-04-17T07:40:00.204Z,1007.33
2018-04-17T07:41:06.634Z,1007.30
2018-04-17T07:42:12.977Z,1007.32
2018-04-17T07:43:19.393Z,1007.28
2018-04-17T07:44:25.776Z,1007.35
2018-04-17T07:45:31.645Z,1007.33
2018-04-17T07:46:38.542Z,1007.34
2018-04-17T07:47:44.938Z,1007.33
2018-04-17T07:48:50.843Z,1007.34
2018-04-17T07:49:57.715Z,1007.33
2018-04-17T07:51:04.109Z,1007.36
2018-04-17T07:52:10.502Z,1007.32
2018-04-17T07:53:17.913Z,1007.29
2018-04-17T07:54:23.280Z,1007.33
2018-04-17T07:55:29.692Z,1007.34
2018-04-17T07:56:36.093Z,1007.33
2018-04-17T07:57:42.471Z,1007.29
2018-04-17T07:58:48.905Z,1007.33
2018-04-17T07:59:55.268Z,1007.36
2018-04-17T08:01:01.675Z,1007.34
2018-04-17T08:02:08.074Z,1007.32
2018-04-17T08:03:14.459Z,1007.34
2018-04-17T08:04:20.887Z,1007.36
2018-04-17T08:05:26.766Z,1007.39
2018-04-17T08:06:33.177Z,1007.40
2018-04-17T08:07:40.083Z,1007.41
2018-04-17T08:08:46.500Z,1007.41
2018-04-17T08:09:52.398Z,1007.43
2018-04-17T08:10:59.307Z,1007.41
2018-04-17T08:12:05.222Z,1007.37
2018-04-17T08:13:12.146Z,1007.40
2018-04-17T08:14:18.093Z,1007.41
2018-04-17T08:15:24.485Z,1007.40
2018-04-17T08:16:30.917Z,1007.39
2018-04-17T08:17:38.417Z,1007.36
2018-04-17T08:18:43.824Z,1007.32
2018-04-17T08:19:50.220Z,1007.34
2018-04-17T08:20:56.668Z,1007.33
2018-04-17T08:22:03.095Z,1007.36
2018-04-17T08:23:09.542Z,1007.35
2018-04-17T08:24:16.495Z,1007.37
2018-04-17T08:25:22.909Z,1007.34
2018-04-17T08:26:28.860Z,1007.34
2018-04-17T08:27:35.307Z,1007.34
2018-04-17T08:28:42.278Z,1007.37
2018-04-17T08:29:48.201Z,1007.30
2018-04-17T08:30:54.662Z,1007.39
2018-04-17T08:32:01.093Z,1007.38
2018-04-17T08:33:07.552Z,1007.34
2018-04-17T08:34:14.513Z,1007.35
2018-04-17T08:35:20.968Z,1007.41
2018-04-17T08:36:26.920Z,1007.35
2018-04-17T08:37:33.382Z,1007.45
2018-04-17T08:38:39.867Z,1007.48
2018-04-17T08:39:46.297Z,1007.49
2018-04-17T08:40:54.264Z,1007.48
2018-04-17T08:41:59.239Z,1007.49
2018-04-17T08:43:06.191Z,1007.52
2018-04-17T08:44:12.686Z,1007.52
2018-04-17T08:45:18.647Z,1007.53
2018-04-17T08:46:25.115Z,1007.56
2018-04-17T08:47:31.589Z,1007.59
2018-04-17T08:48:38.102Z,1007.61
2018-04-17T08:49:45.045Z,1007.57
2018-04-17T08:50:51.025Z,1007.61
2018-04-17T08:51:57.987Z,1007.59
2018-04-17T08:53:05.468Z,1007.54
2018-04-17T08:54:10.476Z,1007.59
2018-04-17T08:55:16.946Z,1007.60
2018-04-17T08:56:23.436Z,1007.61
2018-04-17T08:57:30.391Z,1007.66
2018-04-17T08:58:36.894Z,1007.68
2018-04-17T08:59:42.906Z,1007.68
2018-04-17T09:00:49.868Z,1007.65
2018-04-17T09:01:56.386Z,1007.67
2018-04-17T09:03:02.817Z,1007.71
2018-04-17T09:04:08.843Z,1007.71
2018-04-17T09:05:15.309Z,1007.70
2018-04-17T09:06:21.807Z,1007.70
2018-04-17T09:07:28.415Z,1007.73
2018-04-17T09:08:35.274Z,1007.73
2018-04-17T09:09:41.305Z,1007.74
2018-04-17T09:10:48.085Z,1007.78
2018-04-17T09:11:54.276Z,1007.77
2018-04-17T09:13:01.301Z,1007.76
2018-04-17T09:14:07.294Z,1007.80
2018-04-17T09:15:14.279Z,1007.78
2018-04-17T09:16:20.779Z,1007.80
2018-04-17T09:17:26.780Z,1007.77
2018-04-17T09:18:33.781Z,1007.77
2018-04-17T09:19:39.819Z,1007.75
2018-04-17T09:20:46.810Z,1007.75
2018-04-17T09:21:52.824Z,1007.78
2018-04-17T09:22:59.344Z,1007.78
2018-04-17T09:24:05.870Z,1007.78
2018-04-17T09:25:12.872Z,1007.78
2018-04-17T09:26:18.888Z,1007.80
2018-04-17T09:27:25.897Z,1007.80
2018-04-17T09:28:32.447Z,1007.81
2018-04-17T09:29:38.470Z,1007.79
2018-04-17T09:30:44.972Z,1007.87
2018-04-17T09:31:51.984Z,1007.84
2018-04-17T09:32:58.019Z,1007.86
2018-04-17T09:34:04.563Z,1007.89
2018-04-17T09:35:11.069Z,1007.89
2018-04-17T09:36:17.594Z,1007.85
2018-04-17T09:37:24.135Z,1007.91
2018-04-17T09:38:31.160Z,1007.88
2018-04-17T09:39:37.703Z,1007.89
2018-04-17T09:40:44.208Z,1007.87
2018-04-17T09:41:50.737Z,1007.89
2018-04-17T09:42:57.291Z,1007.89
2018-04-17T09:44:03.829Z,1007.97
2018-04-17T09:45:10.389Z,1007.94
2018-04-17T09:46:16.423Z,1007.95
2018-04-17T09:47:22.936Z,1007.95
2018-04-17T09:48:29.960Z,1007.91
2018-04-17T09:49:36.019Z,1007.94
2018-04-17T09:50:43.056Z,1007.93
2018-04-17T09:51:49.580Z,1007.92
2018-04-17T09:52:56.127Z,1007.92
2018-04-17T09:54:02.678Z,1007.89
2018-04-17T09:55:08.700Z,1007.89
2018-04-17T09:56:15.751Z,1007.85
2018-04-17T09:57:22.378Z,1007.91
2018-04-17T09:58:28.341Z,1007.94
2018-04-17T09:59:34.917Z,1007.93
2018-04-17T10:00:41.456Z,1007.90
2018-04-17T10:01:48.482Z,1007.86
2018-04-17T10:02:55.037Z,1007.84
2018-04-17T10:04:01.125Z,1007.84
2018-04-17T10:05:07.660Z,1007.81
2018-04-17T10:06:14.696Z,1007.80
2018-04-17T10:07:21.257Z,1007.78
2018-04-17T10:08:27.818Z,1007.78
2018-04-17T10:09:33.902Z,1007.77
2018-04-17T10:10:40.444Z,1007.78
2018-04-17T10:11:47.500Z,1007.74
2018-04-17T10:12:53.549Z,1007.74
2018-04-17T10:14:00.655Z,1007.74
2018-04-17T10:15:07.192Z,1007.70
2018-04-17T10:16:13.234Z,1007.72
2018-04-17T10:17:20.379Z,1007.69
2018-04-17T10:18:26.853Z,1007.67
2018-04-17T10:19:32.957Z,1007.65
2018-04-17T10:20:39.986Z,1007.64
2018-04-17T10:21:46.067Z,1007.64
2018-04-17T10:22:53.133Z,1007.68
2018-04-17T10:23:59.714Z,1007.63
2018-04-17T10:25:05.776Z,1007.63
2018-04-17T10:26:12.831Z,1007.65
2018-04-17T10:27:18.909Z,1007.66
2018-04-17T10:28:25.514Z,1007.64
2018-04-17T10:29:32.590Z,1007.65
2018-04-17T10:30:38.638Z,1007.68
2018-04-17T10:31:45.691Z,1007.66
2018-04-17T10:32:51.770Z,1007.65
2018-04-17T10:33:58.868Z,1007.67
2018-04-17T10:35:04.923Z,1007.65
2018-04-17T10:36:11.997Z,1007.61
2018-04-17T10:37:18.083Z,1007.62
2018-04-17T10:38:25.159Z,1007.58
2018-04-17T10:39:31.268Z,1007.58
2018-04-17T10:40:38.381Z,1007.58
2018-04-17T10:41:44.407Z,1007.56
2018-04-17T10:42:51.506Z,1007.57
2018-04-17T10:43:57.575Z,1007.59
2018-04-17T10:45:04.681Z,1007.62
2018-04-17T10:46:10.761Z,1007.59
2018-04-17T10:47:17.348Z,1007.56
2018-04-17T10:48:23.929Z,1007.59
2018-04-17T10:49:30.562Z,1007.57
2018-04-17T10:50:37.428Z,1007.54
2018-04-17T10:51:43.715Z,1007.55
2018-04-17T10:52:50.319Z,1007.57
2018-04-17T10:53:56.937Z,1007.49
2018-04-17T10:55:04.035Z,1007.49
2018-04-17T10:56:10.637Z,1007.51
2018-04-17T10:57:17.224Z,1007.46
2018-04-17T10:58:23.347Z,1007.46
2018-04-17T10:59:29.971Z,1007.47
2018-04-17T11:00:36.569Z,1007.41
2018-04-17T11:01:43.171Z,1007.41
2018-04-17T11:02:50.378Z,1007.47
2018-04-17T11:03:56.903Z,1007.43
2018-04-17T11:05:03.550Z,1007.39
2018-04-17T11:06:10.131Z,1007.38
2018-04-17T11:07:16.754Z,1007.36
2018-04-17T11:08:22.889Z,1007.32
2018-04-17T11:09:29.528Z,1007.33
2018-04-17T11:10:36.642Z,1007.33
2018-04-17T11:11:43.256Z,1007.30
2018-04-17T11:12:49.885Z,1007.31
2018-04-17T11:13:56.533Z,1007.30
2018-04-17T11:15:03.188Z,1007.31
2018-04-17T11:16:09.796Z,1007.31
2018-04-17T11:17:16.461Z,1007.33
2018-04-17T11:18:23.132Z,1007.28
2018-04-17T11:19:29.392Z,1007.28
2018-04-17T11:20:36.634Z,1007.21
2018-04-17T11:21:43.492Z,1007.20
2018-04-17T11:22:49.873Z,1007.20
2018-04-17T11:23:56.818Z,1007.17
2018-04-17T11:25:03.788Z,1007.17
2018-04-17T11:26:10.761Z,1007.13
2018-04-17T11:27:17.786Z,1007.13
2018-04-17T11:28:24.833Z,1007.11
2018-04-17T11:29:31.954Z,1007.17
2018-04-17T11:30:39.540Z,1007.16
2018-04-17T11:31:46.193Z,1007.16
2018-04-17T11:32:53.839Z,1007.06
2018-04-17T11:34:00.543Z,1007.07
2018-04-17T11:35:08.285Z,1007.09
2018-04-17T11:36:14.995Z,1007.04
2018-04-17T11:37:22.739Z,1007.00
2018-04-17T11:38:29.509Z,1006.96
2018-04-17T11:39:36.817Z,1007.04
2018-04-17T11:40:44.094Z,1007.02
2018-04-17T11:41:51.905Z,1007.01
2018-04-17T11:42:59.265Z,1006.99
2018-04-17T11:44:06.098Z,1006.98
2018-04-17T11:45:13.457Z,1006.98
2018-04-17T11:46:20.804Z,1006.98
2018-04-17T11:47:28.169Z,1007.05
2018-04-17T11:48:35.574Z,1006.99
2018-04-17T11:49:43.494Z,1006.99
2018-04-17T11:50:50.886Z,1006.96
2018-04-17T11:51:57.831Z,1007.00
2018-04-17T11:53:05.279Z,1007.05
2018-04-17T11:54:13.227Z,1007.02
2018-04-17T11:55:20.222Z,1007.02
2018-04-17T11:56:27.668Z,1006.96
2018-04-17T11:57:35.674Z,1006.93
2018-04-17T11:58:43.608Z,1006.94
2018-04-17T11:59:50.106Z,1006.93
2018-04-17T12:00:57.559Z,1006.96
2018-04-17T12:02:05.064Z,1006.96
2018-04-17T12:03:13.025Z,1006.96
2018-04-17T12:04:20.020Z,1006.95
2018-04-17T12:05:27.542Z,1006.90
2018-04-17T12:06:35.009Z,1006.92
2018-04-17T12:07:42.512Z,1006.93
2018-04-17T12:08:50.036Z,1006.91
2018-04-17T12:09:57.574Z,1006.88
2018-04-17T12:11:05.061Z,1006.91
2018-04-17T12:12:12.578Z,1006.89
2018-04-17T12:13:20.102Z,1006.94
2018-04-17T12:14:27.626Z,1006.96
2018-04-17T12:15:35.125Z,1007.03
2018-04-17T12:16:42.641Z,1007.00
2018-04-17T12:17:50.159Z,1006.94
2018-04-17T12:18:57.647Z,1007.01
2018-04-17T12:20:05.668Z,1006.94
2018-04-17T12:21:12.670Z,1006.96
2018-04-17T12:22:20.191Z,1006.96
2018-04-17T12:23:27.729Z,1007.02
2018-04-17T12:24:35.259Z,1007.02
2018-04-17T12:25:42.752Z,1006.94
2018-04-17T12:26:50.378Z,1006.89
2018-04-17T12:27:57.802Z,1006.85
2018-04-17T12:29:05.814Z,1006.95
2018-04-17T12:30:12.867Z,1006.93
2018-04-17T12:31:20.868Z,1006.88
2018-04-17T12:32:27.896Z,1006.87
2018-04-17T12:33:35.409Z,1006.90
2018-04-17T12:34:43.456Z,1006.86
2018-04-17T12:35:50.491Z,1006.86
2018-04-17T12:36:58.513Z,1006.90
2018-04-17T12:38:06.046Z,1006.91
2018-04-17T12:39:13.562Z,1006.90
2018-04-17T12:40:21.118Z,1006.92
2018-04-17T12:41:28.119Z,1006.88
2018-04-17T12:42:36.655Z,1006.82
2018-04-17T12:43:43.683Z,1006.82
2018-04-17T12:44:51.239Z,1006.84
2018-04-17T12:45:58.243Z,1006.84
2018-04-17T12:47:07.348Z,1006.82
2018-04-17T12:48:13.286Z,1006.83
2018-04-17T12:49:20.829Z,1006.82
2018-04-17T12:50:28.383Z,1006.80
2018-04-17T12:51:37.417Z,1006.84
2018-04-17T12:52:43.526Z,1006.83
2018-04-17T12:53:50.989Z,1006.76
2018-04-17T12:54:58.569Z,1006.83
2018-04-17T12:56:06.098Z,1006.81
2018-04-17T12:57:14.134Z,1006.84
2018-04-17T12:58:21.203Z,1006.86
2018-04-17T12:59:28.752Z,1006.85
2018-04-17T13:00:36.434Z,1006.82
2018-04-17T13:01:43.890Z,1006.79
2018-04-17T13:02:52.460Z,1006.82
2018-04-17T13:03:59.541Z,1006.85
2018-04-17T13:05:06.663Z,1006.84
2018-04-17T13:06:14.239Z,1006.87
2018-04-17T13:07:21.862Z,1006.85
2018-04-17T13:08:29.994Z,1006.86
2018-04-17T13:09:37.149Z,1006.85
2018-04-17T13:10:44.803Z,1006.86
2018-04-17T13:11:52.425Z,1006.87
2018-04-17T13:13:00.113Z,1006.86
2018-04-17T13:14:07.769Z,1006.88
2018-04-17T13:15:15.487Z,1006.84
2018-04-17T13:16:23.615Z,1006.85
2018-04-17T13:17:31.335Z,1006.88
2018-04-17T13:18:38.961Z,1006.87
2018-04-17T13:19:46.127Z,1006.83
2018-04-17T13:20:53.750Z,1006.91
2018-04-17T13:22:01.412Z,1006.89
2018-04-17T13:23:09.528Z,1006.92
2018-04-17T13:24:17.139Z,1006.86
2018-04-17T13:25:24.273Z,1006.90